sensor_id;sensor_type;location;lat;lon;timestamp;P1;durP1;ratioP1;P2;durP2;ratioP2
52268;SDS011;38224;50.950;4.100;2023-11-19T00:00:49;12.27;;;3.22;;
52268;SDS011;38224;50.950;4.100;2023-11-19T00:03:15;13.82;;;3.33;;
52268;SDS011;38224;50.950;4.100;2023-11-19T00:05:41;15.03;;;3.53;;
52268;SDS011;38224;50.950;4.100;2023-11-19T00:08:06;19.15;;;3.58;;
52268;SDS011;38224;50.950;4.100;2023-11-19T00:10:33;9.85;;;3.30;;
52268;SDS011;38224;50.950;4.100;2023-11-19T00:12:58;18.80;;;4.20;;
52268;SDS011;38224;50.950;4.100;2023-11-19T00:15:24;19.33;;;3.70;;
52268;SDS011;38224;50.950;4.100;2023-11-19T00:17:50;17.75;;;4.10;;
52268;SDS011;38224;50.950;4.100;2023-11-19T00:20:16;11.80;;;3.20;;
52268;SDS011;38224;50.950;4.100;2023-11-19T00:22:41;17.42;;;4.82;;
52268;SDS011;38224;50.950;4.100;2023-11-19T00:25:08;17.10;;;4.20;;
52268;SDS011;38224;50.950;4.100;2023-11-19T00:27:33;21.95;;;4.22;;
52268;SDS011;38224;50.950;4.100;2023-11-19T00:29:58;16.43;;;3.93;;
52268;SDS011;38224;50.950;4.100;2023-11-19T00:32:24;16.83;;;3.17;;
52268;SDS011;38224;50.950;4.100;2023-11-19T00:34:49;16.83;;;3.42;;
52268;SDS011;38224;50.950;4.100;2023-11-19T00:37:14;27.10;;;4.15;;
52268;SDS011;38224;50.950;4.100;2023-11-19T00:39:42;24.88;;;4.03;;
52268;SDS011;38224;50.950;4.100;2023-11-19T00:42:11;23.00;;;3.80;;
52268;SDS011;38224;50.950;4.100;2023-11-19T00:44:36;40.42;;;5.78;;
52268;SDS011;38224;50.950;4.100;2023-11-19T00:47:02;12.27;;;3.37;;
52268;SDS011;38224;50.950;4.100;2023-11-19T00:49:27;27.63;;;4.07;;
52268;SDS011;38224;50.950;4.100;2023-11-19T00:51:53;16.60;;;3.70;;
52268;SDS011;38224;50.950;4.100;2023-11-19T00:54:18;24.48;;;4.03;;
52268;SDS011;38224;50.950;4.100;2023-11-19T00:56:43;27.27;;;5.87;;
52268;SDS011;38224;50.950;4.100;2023-11-19T00:59:09;25.52;;;5.05;;
52268;SDS011;38224;50.950;4.100;2023-11-19T01:01:35;31.58;;;4.05;;
52268;SDS011;38224;50.950;4.100;2023-11-19T01:04:01;22.10;;;4.88;;
52268;SDS011;38224;50.950;4.100;2023-11-19T01:06:26;26.77;;;4.87;;
52268;SDS011;38224;50.950;4.100;2023-11-19T01:08:52;28.00;;;5.53;;
52268;SDS011;38224;50.950;4.100;2023-11-19T01:11:21;34.25;;;5.18;;
52268;SDS011;38224;50.950;4.100;2023-11-19T01:13:47;25.70;;;5.93;;
52268;SDS011;38224;50.950;4.100;2023-11-19T01:16:12;31.75;;;5.05;;
52268;SDS011;38224;50.950;4.100;2023-11-19T01:18:38;25.90;;;4.28;;
52268;SDS011;38224;50.950;4.100;2023-11-19T01:21:03;34.05;;;5.95;;
52268;SDS011;38224;50.950;4.100;2023-11-19T01:23:28;29.23;;;5.95;;
52268;SDS011;38224;50.950;4.100;2023-11-19T01:25:54;28.50;;;4.83;;
52268;SDS011;38224;50.950;4.100;2023-11-19T01:28:19;27.57;;;4.53;;
52268;SDS011;38224;50.950;4.100;2023-11-19T01:30:44;34.73;;;7.93;;
52268;SDS011;38224;50.950;4.100;2023-11-19T01:33:09;29.87;;;5.23;;
52268;SDS011;38224;50.950;4.100;2023-11-19T01:35:35;33.70;;;5.40;;
52268;SDS011;38224;50.950;4.100;2023-11-19T01:38:00;27.95;;;5.00;;
52268;SDS011;38224;50.950;4.100;2023-11-19T01:40:26;30.47;;;5.90;;
52268;SDS011;38224;50.950;4.100;2023-11-19T01:42:51;30.05;;;6.00;;
52268;SDS011;38224;50.950;4.100;2023-11-19T01:45:27;26.23;;;5.68;;
52268;SDS011;38224;50.950;4.100;2023-11-19T01:47:53;35.05;;;5.72;;
52268;SDS011;38224;50.950;4.100;2023-11-19T01:50:18;43.08;;;6.60;;
52268;SDS011;38224;50.950;4.100;2023-11-19T01:52:44;33.75;;;6.57;;
52268;SDS011;38224;50.950;4.100;2023-11-19T01:55:10;30.67;;;5.90;;
52268;SDS011;38224;50.950;4.100;2023-11-19T01:57:36;35.03;;;5.97;;
52268;SDS011;38224;50.950;4.100;2023-11-19T02:00:03;22.13;;;4.80;;
52268;SDS011;38224;50.950;4.100;2023-11-19T02:02:28;28.02;;;5.03;;
52268;SDS011;38224;50.950;4.100;2023-11-19T02:04:54;35.53;;;5.43;;
52268;SDS011;38224;50.950;4.100;2023-11-19T02:07:20;32.75;;;4.65;;
52268;SDS011;38224;50.950;4.100;2023-11-19T02:09:46;37.40;;;5.13;;
52268;SDS011;38224;50.950;4.100;2023-11-19T02:12:11;33.23;;;5.40;;
52268;SDS011;38224;50.950;4.100;2023-11-19T02:14:40;39.90;;;6.65;;
52268;SDS011;38224;50.950;4.100;2023-11-19T02:17:05;36.47;;;5.25;;
52268;SDS011;38224;50.950;4.100;2023-11-19T02:19:31;32.77;;;6.20;;
52268;SDS011;38224;50.950;4.100;2023-11-19T02:21:56;28.27;;;5.38;;
52268;SDS011;38224;50.950;4.100;2023-11-19T02:24:22;31.65;;;5.82;;
52268;SDS011;38224;50.950;4.100;2023-11-19T02:26:59;40.63;;;6.78;;
52268;SDS011;38224;50.950;4.100;2023-11-19T02:29:27;36.00;;;5.82;;
52268;SDS011;38224;50.950;4.100;2023-11-19T02:31:52;48.77;;;7.00;;
52268;SDS011;38224;50.950;4.100;2023-11-19T02:34:21;36.65;;;6.10;;
52268;SDS011;38224;50.950;4.100;2023-11-19T02:36:47;31.92;;;5.90;;
52268;SDS011;38224;50.950;4.100;2023-11-19T02:39:12;35.95;;;5.93;;
52268;SDS011;38224;50.950;4.100;2023-11-19T02:41:38;44.75;;;7.10;;
52268;SDS011;38224;50.950;4.100;2023-11-19T02:44:07;51.55;;;8.52;;
52268;SDS011;38224;50.950;4.100;2023-11-19T02:46:32;35.33;;;5.07;;
52268;SDS011;38224;50.950;4.100;2023-11-19T02:48:58;30.08;;;4.95;;
52268;SDS011;38224;50.950;4.100;2023-11-19T02:51:23;41.73;;;6.07;;
52268;SDS011;38224;50.950;4.100;2023-11-19T02:53:48;33.75;;;5.65;;
52268;SDS011;38224;50.950;4.100;2023-11-19T02:56:14;33.73;;;5.00;;
52268;SDS011;38224;50.950;4.100;2023-11-19T02:58:50;47.28;;;5.47;;
52268;SDS011;38224;50.950;4.100;2023-11-19T03:01:22;45.33;;;6.13;;
52268;SDS011;38224;50.950;4.100;2023-11-19T03:03:54;39.88;;;5.78;;
52268;SDS011;38224;50.950;4.100;2023-11-19T03:06:21;35.42;;;5.10;;
52268;SDS011;38224;50.950;4.100;2023-11-19T03:08:47;40.78;;;5.65;;
52268;SDS011;38224;50.950;4.100;2023-11-19T03:11:13;47.40;;;6.70;;
52268;SDS011;38224;50.950;4.100;2023-11-19T03:13:39;39.58;;;5.32;;
52268;SDS011;38224;50.950;4.100;2023-11-19T03:16:05;35.83;;;5.50;;
52268;SDS011;38224;50.950;4.100;2023-11-19T03:18:30;36.95;;;5.95;;
52268;SDS011;38224;50.950;4.100;2023-11-19T03:20:55;44.70;;;6.88;;
52268;SDS011;38224;50.950;4.100;2023-11-19T03:23:22;34.95;;;5.55;;
52268;SDS011;38224;50.950;4.100;2023-11-19T03:25:47;31.85;;;5.88;;
52268;SDS011;38224;50.950;4.100;2023-11-19T03:28:13;37.30;;;5.38;;
52268;SDS011;38224;50.950;4.100;2023-11-19T03:30:38;44.57;;;6.23;;
52268;SDS011;38224;50.950;4.100;2023-11-19T03:33:03;34.90;;;4.73;;
52268;SDS011;38224;50.950;4.100;2023-11-19T03:35:28;46.80;;;6.87;;
52268;SDS011;38224;50.950;4.100;2023-11-19T03:37:55;39.58;;;6.88;;
52268;SDS011;38224;50.950;4.100;2023-11-19T03:40:20;43.08;;;8.15;;
52268;SDS011;38224;50.950;4.100;2023-11-19T03:42:46;38.30;;;5.53;;
52268;SDS011;38224;50.950;4.100;2023-11-19T03:45:11;39.90;;;5.63;;
52268;SDS011;38224;50.950;4.100;2023-11-19T03:47:37;32.85;;;5.78;;
52268;SDS011;38224;50.950;4.100;2023-11-19T03:50:02;34.42;;;6.15;;
52268;SDS011;38224;50.950;4.100;2023-11-19T03:52:28;44.17;;;5.57;;
52268;SDS011;38224;50.950;4.100;2023-11-19T03:54:54;39.80;;;5.05;;
52268;SDS011;38224;50.950;4.100;2023-11-19T03:57:20;39.88;;;7.50;;
52268;SDS011;38224;50.950;4.100;2023-11-19T03:59:46;37.92;;;6.80;;
52268;SDS011;38224;50.950;4.100;2023-11-19T04:02:11;41.67;;;5.45;;
52268;SDS011;38224;50.950;4.100;2023-11-19T04:04:36;43.23;;;7.20;;
52268;SDS011;38224;50.950;4.100;2023-11-19T04:07:03;52.28;;;7.20;;
52268;SDS011;38224;50.950;4.100;2023-11-19T04:09:29;43.28;;;6.20;;
52268;SDS011;38224;50.950;4.100;2023-11-19T04:11:55;52.67;;;7.15;;
52268;SDS011;38224;50.950;4.100;2023-11-19T04:14:20;49.22;;;6.00;;
52268;SDS011;38224;50.950;4.100;2023-11-19T04:16:46;45.42;;;7.20;;
52268;SDS011;38224;50.950;4.100;2023-11-19T04:19:11;47.28;;;7.47;;
52268;SDS011;38224;50.950;4.100;2023-11-19T04:21:37;49.30;;;7.60;;
52268;SDS011;38224;50.950;4.100;2023-11-19T04:24:04;52.33;;;6.75;;
52268;SDS011;38224;50.950;4.100;2023-11-19T04:26:30;53.67;;;9.05;;
52268;SDS011;38224;50.950;4.100;2023-11-19T04:28:56;45.25;;;6.97;;
52268;SDS011;38224;50.950;4.100;2023-11-19T04:31:21;43.87;;;8.13;;
52268;SDS011;38224;50.950;4.100;2023-11-19T04:33:46;44.38;;;6.82;;
52268;SDS011;38224;50.950;4.100;2023-11-19T04:36:12;54.22;;;7.05;;
52268;SDS011;38224;50.950;4.100;2023-11-19T04:38:39;49.72;;;6.07;;
52268;SDS011;38224;50.950;4.100;2023-11-19T04:41:05;42.83;;;5.50;;
52268;SDS011;38224;50.950;4.100;2023-11-19T04:43:31;49.35;;;7.97;;
52268;SDS011;38224;50.950;4.100;2023-11-19T04:45:57;53.55;;;8.52;;
52268;SDS011;38224;50.950;4.100;2023-11-19T04:48:22;39.72;;;9.30;;
52268;SDS011;38224;50.950;4.100;2023-11-19T04:50:50;39.95;;;5.82;;
52268;SDS011;38224;50.950;4.100;2023-11-19T04:53:17;53.58;;;7.63;;
52268;SDS011;38224;50.950;4.100;2023-11-19T04:55:42;47.58;;;7.20;;
52268;SDS011;38224;50.950;4.100;2023-11-19T04:58:08;63.73;;;7.70;;
52268;SDS011;38224;50.950;4.100;2023-11-19T05:00:34;43.10;;;6.95;;
52268;SDS011;38224;50.950;4.100;2023-11-19T05:02:59;54.40;;;9.15;;
52268;SDS011;38224;50.950;4.100;2023-11-19T05:05:25;48.70;;;7.05;;
52268;SDS011;38224;50.950;4.100;2023-11-19T05:07:50;40.40;;;6.33;;
52268;SDS011;38224;50.950;4.100;2023-11-19T05:10:15;39.25;;;6.80;;
52268;SDS011;38224;50.950;4.100;2023-11-19T05:12:41;46.75;;;6.80;;
52268;SDS011;38224;50.950;4.100;2023-11-19T05:15:06;50.17;;;7.60;;
52268;SDS011;38224;50.950;4.100;2023-11-19T05:17:32;51.97;;;7.25;;
52268;SDS011;38224;50.950;4.100;2023-11-19T05:19:57;59.13;;;7.35;;
52268;SDS011;38224;50.950;4.100;2023-11-19T05:22:22;61.25;;;7.78;;
52268;SDS011;38224;50.950;4.100;2023-11-19T05:24:48;54.27;;;7.40;;
52268;SDS011;38224;50.950;4.100;2023-11-19T05:27:14;59.55;;;7.43;;
52268;SDS011;38224;50.950;4.100;2023-11-19T05:29:39;54.95;;;6.82;;
52268;SDS011;38224;50.950;4.100;2023-11-19T05:32:06;51.35;;;8.23;;
52268;SDS011;38224;50.950;4.100;2023-11-19T05:34:32;59.13;;;7.80;;
52268;SDS011;38224;50.950;4.100;2023-11-19T05:36:57;46.47;;;6.10;;
52268;SDS011;38224;50.950;4.100;2023-11-19T05:39:23;56.72;;;8.10;;
52268;SDS011;38224;50.950;4.100;2023-11-19T05:41:49;56.10;;;9.90;;
52268;SDS011;38224;50.950;4.100;2023-11-19T05:44:14;45.47;;;6.97;;
52268;SDS011;38224;50.950;4.100;2023-11-19T05:46:39;45.97;;;6.93;;
52268;SDS011;38224;50.950;4.100;2023-11-19T05:49:07;49.08;;;8.27;;
52268;SDS011;38224;50.950;4.100;2023-11-19T05:51:35;44.05;;;6.20;;
52268;SDS011;38224;50.950;4.100;2023-11-19T05:54:01;47.88;;;9.43;;
52268;SDS011;38224;50.950;4.100;2023-11-19T05:56:26;62.42;;;7.57;;
52268;SDS011;38224;50.950;4.100;2023-11-19T05:58:57;51.92;;;7.00;;
52268;SDS011;38224;50.950;4.100;2023-11-19T06:01:22;49.10;;;7.00;;
52268;SDS011;38224;50.950;4.100;2023-11-19T06:03:47;40.70;;;5.77;;
52268;SDS011;38224;50.950;4.100;2023-11-19T06:06:15;48.58;;;7.72;;
52268;SDS011;38224;50.950;4.100;2023-11-19T06:08:40;46.45;;;5.90;;
52268;SDS011;38224;50.950;4.100;2023-11-19T06:11:05;41.42;;;6.30;;
52268;SDS011;38224;50.950;4.100;2023-11-19T06:13:31;52.53;;;7.20;;
52268;SDS011;38224;50.950;4.100;2023-11-19T06:15:56;56.58;;;7.63;;
52268;SDS011;38224;50.950;4.100;2023-11-19T06:18:22;49.77;;;7.07;;
52268;SDS011;38224;50.950;4.100;2023-11-19T06:20:48;49.60;;;6.75;;
52268;SDS011;38224;50.950;4.100;2023-11-19T06:23:14;63.95;;;9.30;;
52268;SDS011;38224;50.950;4.100;2023-11-19T06:25:40;40.67;;;6.57;;
52268;SDS011;38224;50.950;4.100;2023-11-19T06:28:05;50.40;;;8.40;;
52268;SDS011;38224;50.950;4.100;2023-11-19T06:30:30;43.45;;;7.65;;
52268;SDS011;38224;50.950;4.100;2023-11-19T06:32:57;53.33;;;6.60;;
52268;SDS011;38224;50.950;4.100;2023-11-19T06:35:23;48.30;;;6.30;;
52268;SDS011;38224;50.950;4.100;2023-11-19T06:37:48;47.63;;;6.70;;
52268;SDS011;38224;50.950;4.100;2023-11-19T06:40:13;47.07;;;7.07;;
52268;SDS011;38224;50.950;4.100;2023-11-19T06:42:40;61.13;;;8.45;;
52268;SDS011;38224;50.950;4.100;2023-11-19T06:45:06;62.42;;;8.35;;
52268;SDS011;38224;50.950;4.100;2023-11-19T06:47:31;52.70;;;7.22;;
52268;SDS011;38224;50.950;4.100;2023-11-19T06:49:56;60.10;;;9.17;;
52268;SDS011;38224;50.950;4.100;2023-11-19T06:52:22;55.13;;;7.63;;
52268;SDS011;38224;50.950;4.100;2023-11-19T06:54:47;61.13;;;6.90;;
52268;SDS011;38224;50.950;4.100;2023-11-19T06:57:13;63.30;;;9.43;;
52268;SDS011;38224;50.950;4.100;2023-11-19T06:59:38;53.17;;;8.63;;
52268;SDS011;38224;50.950;4.100;2023-11-19T07:02:04;51.95;;;7.88;;
52268;SDS011;38224;50.950;4.100;2023-11-19T07:04:32;57.50;;;8.00;;
52268;SDS011;38224;50.950;4.100;2023-11-19T07:06:58;47.35;;;7.57;;
52268;SDS011;38224;50.950;4.100;2023-11-19T07:09:23;55.80;;;6.95;;
52268;SDS011;38224;50.950;4.100;2023-11-19T07:11:49;48.57;;;6.40;;
52268;SDS011;38224;50.950;4.100;2023-11-19T07:14:16;49.53;;;7.40;;
52268;SDS011;38224;50.950;4.100;2023-11-19T07:16:42;53.17;;;7.68;;
52268;SDS011;38224;50.950;4.100;2023-11-19T07:19:07;54.10;;;8.52;;
52268;SDS011;38224;50.950;4.100;2023-11-19T07:21:33;45.17;;;7.35;;
52268;SDS011;38224;50.950;4.100;2023-11-19T07:23:59;47.85;;;7.70;;
52268;SDS011;38224;50.950;4.100;2023-11-19T07:26:24;44.95;;;8.10;;
52268;SDS011;38224;50.950;4.100;2023-11-19T07:28:50;53.65;;;7.68;;
52268;SDS011;38224;50.950;4.100;2023-11-19T07:31:15;51.70;;;7.47;;
52268;SDS011;38224;50.950;4.100;2023-11-19T07:33:41;46.70;;;7.25;;
52268;SDS011;38224;50.950;4.100;2023-11-19T07:36:09;59.53;;;8.18;;
52268;SDS011;38224;50.950;4.100;2023-11-19T07:38:35;47.22;;;7.43;;
52268;SDS011;38224;50.950;4.100;2023-11-19T07:41:00;45.63;;;8.00;;
52268;SDS011;38224;50.950;4.100;2023-11-19T07:43:25;43.28;;;7.57;;
52268;SDS011;38224;50.950;4.100;2023-11-19T07:45:51;53.83;;;7.82;;
52268;SDS011;38224;50.950;4.100;2023-11-19T07:48:16;48.97;;;7.15;;
52268;SDS011;38224;50.950;4.100;2023-11-19T07:50:43;44.20;;;10.82;;
52268;SDS011;38224;50.950;4.100;2023-11-19T07:53:08;54.43;;;8.30;;
52268;SDS011;38224;50.950;4.100;2023-11-19T07:55:34;39.58;;;7.18;;
52268;SDS011;38224;50.950;4.100;2023-11-19T07:57:59;45.88;;;8.18;;
52268;SDS011;38224;50.950;4.100;2023-11-19T08:00:24;48.77;;;7.30;;
52268;SDS011;38224;50.950;4.100;2023-11-19T08:02:49;46.10;;;6.97;;
52268;SDS011;38224;50.950;4.100;2023-11-19T08:05:15;46.20;;;7.90;;
52268;SDS011;38224;50.950;4.100;2023-11-19T08:07:40;46.03;;;6.03;;
52268;SDS011;38224;50.950;4.100;2023-11-19T08:10:06;58.83;;;8.73;;
52268;SDS011;38224;50.950;4.100;2023-11-19T08:12:34;43.90;;;7.65;;
52268;SDS011;38224;50.950;4.100;2023-11-19T08:15:00;42.03;;;6.65;;
52268;SDS011;38224;50.950;4.100;2023-11-19T08:17:25;39.00;;;8.00;;
52268;SDS011;38224;50.950;4.100;2023-11-19T08:19:50;48.15;;;6.30;;
52268;SDS011;38224;50.950;4.100;2023-11-19T08:22:16;48.77;;;6.87;;
52268;SDS011;38224;50.950;4.100;2023-11-19T08:24:41;52.05;;;6.60;;
52268;SDS011;38224;50.950;4.100;2023-11-19T08:27:07;39.38;;;6.20;;
52268;SDS011;38224;50.950;4.100;2023-11-19T08:29:32;31.10;;;5.70;;
52268;SDS011;38224;50.950;4.100;2023-11-19T08:31:59;40.03;;;5.93;;
52268;SDS011;38224;50.950;4.100;2023-11-19T08:34:25;44.00;;;6.32;;
52268;SDS011;38224;50.950;4.100;2023-11-19T08:36:50;33.13;;;6.87;;
52268;SDS011;38224;50.950;4.100;2023-11-19T08:39:18;46.88;;;7.20;;
52268;SDS011;38224;50.950;4.100;2023-11-19T08:41:43;44.03;;;6.80;;
52268;SDS011;38224;50.950;4.100;2023-11-19T08:44:09;40.37;;;6.67;;
52268;SDS011;38224;50.950;4.100;2023-11-19T08:46:34;43.55;;;6.35;;
52268;SDS011;38224;50.950;4.100;2023-11-19T08:48:59;42.43;;;6.27;;
52268;SDS011;38224;50.950;4.100;2023-11-19T08:51:25;45.17;;;5.78;;
52268;SDS011;38224;50.950;4.100;2023-11-19T08:53:50;39.83;;;7.07;;
52268;SDS011;38224;50.950;4.100;2023-11-19T08:56:15;33.60;;;5.20;;
52268;SDS011;38224;50.950;4.100;2023-11-19T08:58:41;43.40;;;7.03;;
52268;SDS011;38224;50.950;4.100;2023-11-19T09:01:06;31.53;;;5.50;;
52268;SDS011;38224;50.950;4.100;2023-11-19T09:03:31;31.35;;;5.53;;
52268;SDS011;38224;50.950;4.100;2023-11-19T09:05:57;41.60;;;6.47;;
52268;SDS011;38224;50.950;4.100;2023-11-19T09:08:22;39.47;;;5.90;;
52268;SDS011;38224;50.950;4.100;2023-11-19T09:10:47;35.95;;;6.45;;
52268;SDS011;38224;50.950;4.100;2023-11-19T09:13:13;37.20;;;6.20;;
52268;SDS011;38224;50.950;4.100;2023-11-19T09:15:38;34.42;;;6.80;;
52268;SDS011;38224;50.950;4.100;2023-11-19T09:18:03;41.50;;;5.80;;
52268;SDS011;38224;50.950;4.100;2023-11-19T09:20:29;38.13;;;5.90;;
52268;SDS011;38224;50.950;4.100;2023-11-19T09:23:02;40.70;;;7.32;;
52268;SDS011;38224;50.950;4.100;2023-11-19T09:25:27;35.42;;;5.38;;
52268;SDS011;38224;50.950;4.100;2023-11-19T09:27:53;37.80;;;5.87;;
52268;SDS011;38224;50.950;4.100;2023-11-19T09:30:18;27.60;;;5.23;;
52268;SDS011;38224;50.950;4.100;2023-11-19T09:32:43;30.83;;;4.85;;
52268;SDS011;38224;50.950;4.100;2023-11-19T09:35:08;30.25;;;5.07;;
52268;SDS011;38224;50.950;4.100;2023-11-19T09:37:35;27.08;;;4.55;;
52268;SDS011;38224;50.950;4.100;2023-11-19T09:40:01;34.60;;;5.93;;
52268;SDS011;38224;50.950;4.100;2023-11-19T09:42:28;29.52;;;5.43;;
52268;SDS011;38224;50.950;4.100;2023-11-19T09:44:53;26.80;;;5.50;;
52268;SDS011;38224;50.950;4.100;2023-11-19T09:47:19;27.02;;;5.18;;
52268;SDS011;38224;50.950;4.100;2023-11-19T09:49:46;23.38;;;4.72;;
52268;SDS011;38224;50.950;4.100;2023-11-19T09:52:12;27.73;;;4.80;;
52268;SDS011;38224;50.950;4.100;2023-11-19T09:54:38;27.42;;;4.38;;
52268;SDS011;38224;50.950;4.100;2023-11-19T09:57:03;22.67;;;5.17;;
52268;SDS011;38224;50.950;4.100;2023-11-19T09:59:29;37.65;;;6.47;;
52268;SDS011;38224;50.950;4.100;2023-11-19T10:01:55;31.02;;;6.53;;
52268;SDS011;38224;50.950;4.100;2023-11-19T10:04:21;30.02;;;5.68;;
52268;SDS011;38224;50.950;4.100;2023-11-19T10:06:47;26.50;;;4.80;;
52268;SDS011;38224;50.950;4.100;2023-11-19T10:09:12;32.95;;;4.85;;
52268;SDS011;38224;50.950;4.100;2023-11-19T10:11:40;31.38;;;5.68;;
52268;SDS011;38224;50.950;4.100;2023-11-19T10:14:05;31.98;;;4.53;;
52268;SDS011;38224;50.950;4.100;2023-11-19T10:16:31;26.42;;;4.85;;
52268;SDS011;38224;50.950;4.100;2023-11-19T10:18:59;29.05;;;5.30;;
52268;SDS011;38224;50.950;4.100;2023-11-19T10:21:24;26.27;;;5.73;;
52268;SDS011;38224;50.950;4.100;2023-11-19T10:23:53;33.75;;;5.07;;
52268;SDS011;38224;50.950;4.100;2023-11-19T10:26:20;32.53;;;5.88;;
52268;SDS011;38224;50.950;4.100;2023-11-19T10:28:49;35.85;;;6.13;;
52268;SDS011;38224;50.950;4.100;2023-11-19T10:31:15;29.88;;;4.57;;
52268;SDS011;38224;50.950;4.100;2023-11-19T10:33:40;32.47;;;5.43;;
52268;SDS011;38224;50.950;4.100;2023-11-19T10:36:06;31.70;;;5.05;;
52268;SDS011;38224;50.950;4.100;2023-11-19T10:38:32;29.17;;;4.93;;
52268;SDS011;38224;50.950;4.100;2023-11-19T10:40:57;31.60;;;5.03;;
52268;SDS011;38224;50.950;4.100;2023-11-19T10:43:22;33.00;;;5.72;;
52268;SDS011;38224;50.950;4.100;2023-11-19T10:45:48;51.53;;;7.70;;
52268;SDS011;38224;50.950;4.100;2023-11-19T10:48:13;37.67;;;6.50;;
52268;SDS011;38224;50.950;4.100;2023-11-19T10:50:40;36.30;;;5.70;;
52268;SDS011;38224;50.950;4.100;2023-11-19T10:53:06;29.65;;;4.50;;
52268;SDS011;38224;50.950;4.100;2023-11-19T10:55:32;29.70;;;5.22;;
52268;SDS011;38224;50.950;4.100;2023-11-19T10:58:07;33.13;;;5.53;;
52268;SDS011;38224;50.950;4.100;2023-11-19T11:00:54;36.90;;;5.32;;
52268;SDS011;38224;50.950;4.100;2023-11-19T11:03:19;28.88;;;4.82;;
52268;SDS011;38224;50.950;4.100;2023-11-19T11:05:49;30.42;;;4.95;;
52268;SDS011;38224;50.950;4.100;2023-11-19T11:08:14;37.80;;;5.82;;
52268;SDS011;38224;50.950;4.100;2023-11-19T11:10:42;34.30;;;4.90;;
52268;SDS011;38224;50.950;4.100;2023-11-19T11:13:08;25.25;;;3.63;;
52268;SDS011;38224;50.950;4.100;2023-11-19T11:15:33;27.10;;;4.70;;
52268;SDS011;38224;50.950;4.100;2023-11-19T11:18:00;28.67;;;5.28;;
52268;SDS011;38224;50.950;4.100;2023-11-19T11:20:32;25.63;;;5.03;;
52268;SDS011;38224;50.950;4.100;2023-11-19T11:25:56;31.92;;;5.72;;
52268;SDS011;38224;50.950;4.100;2023-11-19T11:28:29;21.00;;;4.93;;
52268;SDS011;38224;50.950;4.100;2023-11-19T11:31:08;24.30;;;5.22;;
52268;SDS011;38224;50.950;4.100;2023-11-19T11:33:40;21.70;;;5.10;;
52268;SDS011;38224;50.950;4.100;2023-11-19T11:38:37;38.17;;;6.53;;
52268;SDS011;38224;50.950;4.100;2023-11-19T11:43:46;33.05;;;5.20;;
52268;SDS011;38224;50.950;4.100;2023-11-19T11:48:55;22.95;;;4.57;;
52268;SDS011;38224;50.950;4.100;2023-11-19T11:51:57;37.33;;;5.22;;
52268;SDS011;38224;50.950;4.100;2023-11-19T11:54:07;25.60;;;5.15;;
52268;SDS011;38224;50.950;4.100;2023-11-19T11:56:33;28.75;;;6.25;;
52268;SDS011;38224;50.950;4.100;2023-11-19T11:59:01;33.33;;;6.53;;
52268;SDS011;38224;50.950;4.100;2023-11-19T12:01:27;22.83;;;4.22;;
52268;SDS011;38224;50.950;4.100;2023-11-19T12:03:57;33.60;;;4.78;;
52268;SDS011;38224;50.950;4.100;2023-11-19T12:06:23;29.52;;;5.10;;
52268;SDS011;38224;50.950;4.100;2023-11-19T12:08:48;30.27;;;5.47;;
52268;SDS011;38224;50.950;4.100;2023-11-19T12:11:13;31.50;;;4.60;;
52268;SDS011;38224;50.950;4.100;2023-11-19T12:13:43;37.08;;;5.22;;
52268;SDS011;38224;50.950;4.100;2023-11-19T12:16:11;24.37;;;5.13;;
52268;SDS011;38224;50.950;4.100;2023-11-19T12:18:36;27.02;;;4.95;;
52268;SDS011;38224;50.950;4.100;2023-11-19T12:21:03;27.23;;;4.15;;
52268;SDS011;38224;50.950;4.100;2023-11-19T12:23:31;32.70;;;6.38;;
52268;SDS011;38224;50.950;4.100;2023-11-19T12:25:57;30.88;;;5.32;;
52268;SDS011;38224;50.950;4.100;2023-11-19T12:28:22;33.00;;;5.25;;
52268;SDS011;38224;50.950;4.100;2023-11-19T12:30:49;27.13;;;5.55;;
52268;SDS011;38224;50.950;4.100;2023-11-19T12:33:14;32.55;;;5.68;;
52268;SDS011;38224;50.950;4.100;2023-11-19T12:35:41;35.40;;;5.22;;
52268;SDS011;38224;50.950;4.100;2023-11-19T12:38:07;34.25;;;4.95;;
52268;SDS011;38224;50.950;4.100;2023-11-19T12:40:32;34.65;;;4.55;;
52268;SDS011;38224;50.950;4.100;2023-11-19T12:43:01;29.52;;;5.30;;
52268;SDS011;38224;50.950;4.100;2023-11-19T12:45:36;25.15;;;4.90;;
52268;SDS011;38224;50.950;4.100;2023-11-19T12:48:04;33.10;;;5.68;;
52268;SDS011;38224;50.950;4.100;2023-11-19T12:50:30;31.77;;;4.88;;
52268;SDS011;38224;50.950;4.100;2023-11-19T12:53:15;29.85;;;5.15;;
52268;SDS011;38224;50.950;4.100;2023-11-19T12:55:40;25.90;;;4.55;;
52268;SDS011;38224;50.950;4.100;2023-11-19T12:58:05;28.83;;;5.10;;
52268;SDS011;38224;50.950;4.100;2023-11-19T13:00:31;30.33;;;6.30;;
52268;SDS011;38224;50.950;4.100;2023-11-19T13:02:56;37.13;;;5.40;;
52268;SDS011;38224;50.950;4.100;2023-11-19T13:05:29;42.17;;;6.70;;
52268;SDS011;38224;50.950;4.100;2023-11-19T13:10:25;33.75;;;5.72;;
52268;SDS011;38224;50.950;4.100;2023-11-19T13:13:06;41.40;;;6.45;;
52268;SDS011;38224;50.950;4.100;2023-11-19T13:15:33;41.42;;;6.38;;
52268;SDS011;38224;50.950;4.100;2023-11-19T13:17:59;36.75;;;7.13;;
52268;SDS011;38224;50.950;4.100;2023-11-19T13:20:24;42.35;;;6.35;;
52268;SDS011;38224;50.950;4.100;2023-11-19T13:22:59;41.63;;;6.85;;
52268;SDS011;38224;50.950;4.100;2023-11-19T13:25:25;38.85;;;7.25;;
52268;SDS011;38224;50.950;4.100;2023-11-19T13:27:50;40.35;;;5.47;;
52268;SDS011;38224;50.950;4.100;2023-11-19T13:30:16;37.15;;;5.55;;
52268;SDS011;38224;50.950;4.100;2023-11-19T13:32:41;41.30;;;7.10;;
52268;SDS011;38224;50.950;4.100;2023-11-19T13:35:06;40.65;;;7.05;;
52268;SDS011;38224;50.950;4.100;2023-11-19T13:37:34;35.15;;;6.55;;
52268;SDS011;38224;50.950;4.100;2023-11-19T13:39:59;33.38;;;6.55;;
52268;SDS011;38224;50.950;4.100;2023-11-19T13:42:24;36.88;;;5.97;;
52268;SDS011;38224;50.950;4.100;2023-11-19T13:44:49;34.50;;;6.50;;
52268;SDS011;38224;50.950;4.100;2023-11-19T13:47:15;35.27;;;6.00;;
52268;SDS011;38224;50.950;4.100;2023-11-19T13:49:40;35.35;;;5.60;;
52268;SDS011;38224;50.950;4.100;2023-11-19T13:52:05;36.93;;;7.70;;
52268;SDS011;38224;50.950;4.100;2023-11-19T13:54:30;38.53;;;6.68;;
52268;SDS011;38224;50.950;4.100;2023-11-19T13:56:56;26.33;;;5.38;;
52268;SDS011;38224;50.950;4.100;2023-11-19T13:59:23;37.25;;;7.00;;
52268;SDS011;38224;50.950;4.100;2023-11-19T14:01:48;33.42;;;4.88;;
52268;SDS011;38224;50.950;4.100;2023-11-19T14:04:14;33.90;;;7.25;;
52268;SDS011;38224;50.950;4.100;2023-11-19T14:06:39;42.00;;;6.05;;
52268;SDS011;38224;50.950;4.100;2023-11-19T14:09:06;31.10;;;5.35;;
52268;SDS011;38224;50.950;4.100;2023-11-19T14:11:31;27.80;;;4.85;;
52268;SDS011;38224;50.950;4.100;2023-11-19T14:13:57;35.55;;;7.45;;
52268;SDS011;38224;50.950;4.100;2023-11-19T14:16:26;38.90;;;5.68;;
52268;SDS011;38224;50.950;4.100;2023-11-19T14:18:51;53.40;;;15.90;;
52268;SDS011;38224;50.950;4.100;2023-11-19T14:21:16;42.40;;;7.40;;
52268;SDS011;38224;50.950;4.100;2023-11-19T14:23:41;37.57;;;7.77;;
52268;SDS011;38224;50.950;4.100;2023-11-19T14:26:07;30.20;;;5.80;;
52268;SDS011;38224;50.950;4.100;2023-11-19T14:28:32;36.33;;;6.47;;
52268;SDS011;38224;50.950;4.100;2023-11-19T14:30:57;46.47;;;6.28;;
52268;SDS011;38224;50.950;4.100;2023-11-19T14:33:22;35.47;;;6.03;;
52268;SDS011;38224;50.950;4.100;2023-11-19T14:35:48;47.85;;;7.05;;
52268;SDS011;38224;50.950;4.100;2023-11-19T14:38:13;30.67;;;5.78;;
52268;SDS011;38224;50.950;4.100;2023-11-19T14:40:39;37.13;;;7.10;;